Time;durP1;ratioP1;P1;durP2;ratioP2;P2;SDS_P1;SDS_P2;PMS_P1;PMS_P2;Temp;Humidity;BMP_temperature;BMP_pressure;BME280_temperature;BME280_humidity;BME280_pressure;Samples;Min_cycle;Max_cycle;Signal;HPM_P1;HPM_P2
2022/07/02 00:01:20;;;;;;;1.63;1.20;;;14.10;98.80;;;14.90;100.00;98773.16;4926334;29;20494;-76
2022/07/02 00:03:53;;;;;;;4.93;1.10;;;14.10;98.90;;;14.82;100.00;98770.69;4927690;29;20466;-76
2022/07/02 00:06:29;;;;;;;6.07;1.70;;;13.90;99.10;;;14.88;100.00;98769.91;4926658;29;20549;-76
2022/07/02 00:09:02;;;;;;;4.03;2.10;;;13.90;99.30;;;14.86;100.00;98764.00;4925474;29;20462;-76
2022/07/02 00:11:35;;;;;;;2.17;1.10;;;13.90;99.30;;;14.85;100.00;98765.03;4926277;29;21040;-76
2022/07/02 00:14:06;;;;;;;1.80;1.17;;;13.90;99.40;;;14.78;100.00;98762.38;4928007;29;21211;-76
2022/07/02 00:16:37;;;;;;;5.20;1.40;;;13.90;98.90;;;14.80;100.00;98759.53;4929048;29;20466;-76
2022/07/02 00:19:06;;;;;;;1.57;1.10;;;13.80;99.40;;;14.82;100.00;98766.22;4930219;29;20970;-76
2022/07/02 00:21:39;;;;;;;1.50;1.10;;;13.80;99.40;;;14.80;100.00;98762.16;4927747;29;21186;-76
2022/07/02 00:24:10;;;;;;;1.70;1.10;;;13.80;99.30;;;14.73;100.00;98762.13;4928315;29;20825;-76
2022/07/02 00:26:50;;;;;;;2.17;1.57;;;13.80;99.50;;;14.60;100.00;98762.91;4928069;29;20912;-76
2022/07/02 00:29:34;;;;;;;1.73;1.30;;;13.80;99.20;;;14.53;100.00;98764.69;4928650;29;20465;-76
2022/07/02 00:32:05;;;;;;;2.50;1.77;;;13.70;99.30;;;14.52;100.00;98765.69;4928778;29;20498;-76
2022/07/02 00:34:40;;;;;;;4.60;1.20;;;13.70;99.50;;;14.50;100.00;98767.72;4925385;29;20977;-76
2022/07/02 00:37:11;;;;;;;1.30;1.10;;;13.70;99.30;;;14.47;100.00;98764.66;4928073;29;20459;-76
2022/07/02 00:39:41;;;;;;;2.13;1.10;;;13.60;99.70;;;14.42;100.00;98767.84;4926962;29;20466;-76
2022/07/02 00:42:11;;;;;;;1.70;1.10;;;13.60;99.40;;;14.43;100.00;98780.00;4927865;29;20564;-76
2022/07/02 00:44:43;;;;;;;1.63;1.10;;;13.60;99.70;;;14.39;100.00;98764.78;4927109;29;20458;-76
2022/07/02 00:47:14;;;;;;;2.40;1.37;;;13.50;99.70;;;14.33;100.00;98770.81;4926447;29;20467;-76
2022/07/02 00:49:44;;;;;;;1.30;1.20;;;13.40;99.70;;;14.33;100.00;98769.00;4926790;29;20466;-77
2022/07/02 00:52:14;;;;;;;2.60;1.20;;;13.40;99.90;;;14.29;100.00;98770.38;4925604;29;20585;-76
2022/07/02 00:54:44;;;;;;;1.23;1.03;;;13.40;99.70;;;14.31;100.00;98770.16;4926318;29;20513;-76
2022/07/02 00:57:14;;;;;;;2.00;1.13;;;13.40;99.90;;;14.28;100.00;98767.94;4924764;29;20557;-76
2022/07/02 00:59:45;;;;;;;3.67;1.50;;;13.40;99.90;;;14.20;100.00;98763.63;4925727;29;20474;-76
2022/07/02 01:02:21;;;;;;;1.50;1.10;;;13.30;99.90;;;14.13;100.00;98769.88;4927203;29;20493;-76
2022/07/02 01:04:56;;;;;;;1.60;0.93;;;13.20;99.90;;;14.13;100.00;98768.03;4930232;29;20878;-76
2022/07/02 01:07:25;;;;;;;1.30;1.10;;;13.10;99.90;;;14.15;100.00;98765.22;4930137;29;20466;-76
2022/07/02 01:10:18;;;;;;;3.27;1.70;;;13.10;99.90;;;14.10;100.00;98771.03;4930461;29;20510;-76
2022/07/02 01:12:50;;;;;;;1.17;1.00;;;13.20;99.90;;;14.03;100.00;98770.19;4929145;29;20556;-76
2022/07/02 01:15:21;;;;;;;7.83;1.50;;;13.10;99.90;;;13.97;100.00;98773.56;4930572;29;21007;-76
2022/07/02 01:17:51;;;;;;;1.60;1.40;;;13.10;99.90;;;13.97;100.00;98776.19;4928451;29;20569;-76
2022/07/02 01:20:20;;;;;;;3.00;1.20;;;13.10;99.90;;;14.00;100.00;98770.56;4929544;29;20533;-76
2022/07/02 01:22:52;;;;;;;1.50;1.00;;;13.10;99.90;;;13.94;100.00;98771.31;4929910;29;20857;-76
2022/07/02 01:25:23;;;;;;;2.90;1.30;;;13.10;99.90;;;13.91;100.00;98772.53;4929478;29;20494;-76
2022/07/02 01:27:53;;;;;;;1.80;1.20;;;13.00;99.90;;;13.90;100.00;98770.06;4928365;29;20506;-75
2022/07/02 01:30:24;;;;;;;3.50;1.20;;;13.00;99.90;;;13.91;100.00;98767.28;4929980;29;20470;-76
2022/07/02 01:32:54;;;;;;;1.90;1.20;;;13.00;99.90;;;13.84;100.00;98765.59;4930171;29;20851;-76
2022/07/02 01:35:25;;;;;;;1.30;1.20;;;13.00;99.90;;;13.85;100.00;98768.00;4930766;29;20482;-75
2022/07/02 01:37:56;;;;;;;3.00;1.10;;;13.00;99.90;;;13.84;100.00;98766.41;4930231;29;20465;-76
2022/07/02 01:40:27;;;;;;;2.17;1.20;;;12.90;99.90;;;13.82;100.00;98767.56;4928947;29;20462;-76
2022/07/02 01:42:57;;;;;;;1.30;1.20;;;12.90;99.90;;;13.79;100.00;98773.22;4932545;29;20478;-76
2022/07/02 01:45:27;;;;;;;2.43;1.30;;;12.90;99.90;;;13.78;100.00;98772.41;4931580;29;20460;-76
2022/07/02 01:47:57;;;;;;;1.97;1.00;;;12.80;99.90;;;13.78;100.00;98764.50;4926977;29;20877;-76
2022/07/02 01:50:27;;;;;;;1.47;1.30;;;12.70;99.90;;;13.75;100.00;98766.72;4930286;29;20494;-76
2022/07/02 01:52:59;;;;;;;1.20;1.10;;;12.70;99.90;;;13.72;100.00;98757.38;4928479;29;20485;-76
2022/07/02 01:55:30;;;;;;;2.77;0.93;;;12.70;99.90;;;13.70;100.00;98759.41;4929193;29;20471;-76
2022/07/02 01:58:00;;;;;;;1.93;1.03;;;12.70;99.90;;;13.61;100.00;98763.16;4929077;29;20470;-76
2022/07/02 02:00:30;;;;;;;1.43;1.00;;;12.80;99.90;;;13.55;100.00;98761.28;4928176;29;20498;-76
2022/07/02 02:03:00;;;;;;;1.10;1.00;;;12.70;99.90;;;13.52;100.00;98766.91;4927876;29;20638;-76
2022/07/02 02:05:30;;;;;;;1.85;1.20;;;12.60;99.90;;;13.53;100.00;98763.28;4928482;29;20471;-76
2022/07/02 02:08:01;;;;;;;1.23;1.00;;;12.60;99.90;;;13.46;100.00;98763.25;4929634;29;20693;-76
2022/07/02 02:10:30;;;;;;;3.40;1.20;;;12.60;99.90;;;13.46;100.00;98755.34;4929911;29;20474;-76
2022/07/02 02:13:00;;;;;;;1.43;1.10;;;12.60;99.90;;;13.43;100.00;98760.97;4926892;29;20928;-76
2022/07/02 02:15:30;;;;;;;2.17;1.30;;;12.50;99.90;;;13.38;100.00;98760.72;4929558;29;20483;-76
2022/07/02 02:18:00;;;;;;;1.33;1.10;;;12.50;99.90;;;13.32;100.00;98760.66;4925084;29;20997;-76
2022/07/02 02:20:30;;;;;;;1.77;1.00;;;12.50;99.90;;;13.32;100.00;98760.66;4928758;29;20832;-76
2022/07/02 02:23:04;;;;;;;1.57;1.27;;;12.40;99.90;;;13.28;100.00;98764.66;4929583;29;20475;-76
2022/07/02 02:25:35;;;;;;;2.80;1.10;;;12.30;99.90;;;13.26;100.00;98762.19;4928308;29;20862;-76
2022/07/02 02:28:05;;;;;;;1.80;1.20;;;12.30;99.90;;;13.28;100.00;98760.22;4928657;29;20545;-76
2022/07/02 02:30:34;;;;;;;1.43;1.10;;;12.30;99.90;;;13.28;100.00;98764.66;4927641;29;20482;-76
2022/07/02 02:33:05;;;;;;;1.33;1.23;;;12.30;99.90;;;13.27;100.00;98752.50;4929371;29;20569;-76
2022/07/02 02:35:35;;;;;;;3.73;1.40;;;12.30;99.90;;;13.20;100.00;98755.06;4927989;29;20471;-76
2022/07/02 02:38:06;;;;;;;1.60;1.13;;;12.30;99.90;;;13.16;100.00;98761.69;4929047;29;20517;-76
2022/07/02 02:40:36;;;;;;;1.20;1.10;;;12.30;99.90;;;13.13;100.00;98762.06;4928473;29;23608;-76
2022/07/02 02:43:06;;;;;;;1.87;1.10;;;12.20;99.90;;;13.07;100.00;98757.53;4928810;29;20568;-76
2022/07/02 02:45:35;;;;;;;2.80;1.00;;;12.20;99.90;;;13.06;100.00;98766.41;4929427;29;25148;-76
2022/07/02 02:48:06;;;;;;;2.00;1.23;;;12.20;99.90;;;13.02;100.00;98759.88;4930242;29;20447;-76
2022/07/02 02:50:35;;;;;;;2.00;1.13;;;12.10;99.90;;;12.99;100.00;98761.06;4927175;29;21028;-76
2022/07/02 02:53:07;;;;;;;1.73;1.03;;;12.10;99.90;;;12.98;100.00;98769.94;4927059;29;20613;-76
2022/07/02 02:55:37;;;;;;;2.40;1.10;;;12.00;99.90;;;12.95;100.00;98774.75;4928649;29;20544;-76
2022/07/02 02:58:06;;;;;;;3.20;1.33;;;12.10;99.90;;;12.89;100.00;98773.69;4928760;29;20478;-76
2022/07/02 03:00:37;;;;;;;2.00;1.33;;;12.10;99.90;;;12.88;100.00;98768.59;4928473;29;20522;-78
2022/07/02 03:03:06;;;;;;;2.20;1.20;;;12.10;99.90;;;12.91;100.00;98765.63;4926913;29;20972;-75
2022/07/02 03:05:35;;;;;;;1.57;1.30;;;12.00;99.90;;;12.91;100.00;98774.28;4927305;29;20478;-76
2022/07/02 03:08:07;;;;;;;1.20;0.97;;;11.90;99.90;;;12.90;100.00;98774.50;4927126;29;20525;-76
2022/07/02 03:10:37;;;;;;;4.10;1.20;;;12.00;99.90;;;12.86;100.00;98787.16;4928478;29;20980;-76
2022/07/02 03:13:07;;;;;;;1.20;1.10;;;11.90;99.90;;;12.84;100.00;98777.84;4927956;29;20537;-81
2022/07/02 03:15:36;;;;;;;9.03;5.23;;;11.90;99.90;;;12.85;100.00;98782.91;4929270;29;20465;-76
2022/07/02 03:18:06;;;;;;;2.57;1.10;;;11.90;99.90;;;12.86;100.00;98792.41;4927250;29;20860;-76
2022/07/02 03:20:35;;;;;;;5.13;1.00;;;11.90;99.90;;;12.81;100.00;98794.75;4930206;29;20446;-76
2022/07/02 03:23:07;;;;;;;3.10;1.20;;;11.80;99.90;;;12.79;100.00;98791.53;4930526;29;20450;-76
2022/07/02 03:25:37;;;;;;;1.10;1.00;;;11.80;99.90;;;12.80;100.00;98795.78;4929135;29;20830;-77
2022/07/02 03:28:08;;;;;;;6.63;1.53;;;11.80;99.90;;;12.79;100.00;98803.81;4928582;29;21150;-76
2022/07/02 03:30:39;;;;;;;1.83;1.00;;;11.80;99.90;;;12.80;100.00;98793.16;4927214;29;20987;-76
2022/07/02 03:33:09;;;;;;;18.30;4.50;;;11.80;99.90;;;12.74;100.00;98804.38;4927041;29;20564;-81
2022/07/02 03:35:40;;;;;;;1.30;1.20;;;11.80;99.90;;;12.70;100.00;98802.31;4925864;29;20506;-76
2022/07/02 03:38:11;;;;;;;1.17;1.00;;;11.80;99.90;;;12.68;100.00;98799.03;4926848;29;20496;-76
2022/07/02 03:40:41;;;;;;;1.20;1.10;;;11.70;99.90;;;12.66;100.00;98801.03;4925836;29;20464;-76
2022/07/02 03:43:09;;;;;;;1.20;0.90;;;11.70;99.90;;;12.67;100.00;98805.28;4928136;29;20466;-76
2022/07/02 03:45:39;;;;;;;2.13;1.10;;;11.70;99.90;;;12.69;100.00;98811.97;4925364;29;20521;-76
2022/07/02 03:48:08;;;;;;;1.50;1.00;;;11.70;99.90;;;12.65;100.00;98809.88;4927119;29;20458;-80
2022/07/02 03:50:40;;;;;;;2.43;1.07;;;11.70;99.90;;;12.58;100.00;98802.75;4924395;29;20470;-76
2022/07/02 03:53:12;;;;;;;1.47;1.37;;;11.70;99.90;;;12.54;100.00;98801.47;4926870;29;20517;-77
2022/07/02 03:55:41;;;;;;;2.40;1.20;;;11.60;99.90;;;12.51;100.00;98793.97;4927461;29;20474;-76
2022/07/02 03:58:11;;;;;;;1.50;1.27;;;11.70;99.90;;;12.53;100.00;98802.47;4926844;29;20876;-76
2022/07/02 04:00:42;;;;;;;1.60;1.13;;;11.60;99.90;;;12.58;100.00;98789.63;4928016;29;20486;-76
2022/07/02 04:03:12;;;;;;;1.10;1.00;;;11.60;99.90;;;12.59;100.00;98799.16;4927803;29;20474;-76
2022/07/02 04:05:42;;;;;;;1.20;1.10;;;11.60;99.90;;;12.58;100.00;98800.13;4931443;29;20509;-83
2022/07/02 04:08:19;;;;;;;1.10;1.00;;;11.60;99.90;;;12.51;100.00;98807.09;4930026;29;20449;-76
2022/07/02 04:10:49;;;;;;;1.17;0.97;;;11.60;99.90;;;12.52;100.00;98800.03;4928532;29;20562;-76
2022/07/02 04:13:18;;;;;;;1.50;1.20;;;11.50;99.90;;;12.50;100.00;98802.84;4927243;29;20557;-75
2022/07/02 04:15:48;;;;;;;1.23;1.13;;;11.50;99.90;;;12.51;100.00;98801.03;4928079;29;20494;-76
2022/07/02 04:18:19;;;;;;;1.50;1.10;;;11.50;99.90;;;12.54;100.00;98795.41;4928876;29;20452;-76
2022/07/02 04:20:49;;;;;;;1.37;1.10;;;11.50;99.90;;;12.56;100.00;98790.81;4928246;29;20270;-76
2022/07/02 04:23:19;;;;;;;1.20;1.00;;;11.50;99.90;;;12.53;100.00;98785.91;4929808;29;20471;-76
2022/07/02 04:25:50;;;;;;;1.80;1.10;;;11.60;99.90;;;12.50;100.00;98792.34;4930735;29;20481;-77
2022/07/02 04:28:20;;;;;;;1.63;1.07;;;11.60;99.90;;;12.51;100.00;98783.47;4929619;29;20446;-76
2022/07/02 04:30:51;;;;;;;1.40;1.10;;;11.60;99.90;;;12.54;100.00;98791.00;4930918;29;20470;-76
2022/07/02 04:33:19;;;;;;;1.67;1.20;;;11.60;99.90;;;12.52;100.00;98789.53;4929295;29;20926;-76
2022/07/02 04:35:49;;;;;;;3.27;1.20;;;11.50;99.90;;;12.57;100.00;98787.19;4929375;29;20573;-76
2022/07/02 04:38:20;;;;;;;1.10;1.00;;;11.60;99.90;;;12.63;100.00;98788.28;4931345;29;20459;-76
2022/07/02 04:40:49;;;;;;;1.93;1.20;;;11.60;99.90;;;12.65;100.00;98797.59;4934748;29;20465;-76
2022/07/02 04:43:19;;;;;;;2.27;1.00;;;11.60;99.90;;;12.68;100.00;98788.53;4932458;29;20462;-76
2022/07/02 04:45:48;;;;;;;1.73;1.30;;;11.60;99.90;;;12.72;100.00;98790.63;4935553;29;20513;-76
2022/07/02 04:48:17;;;;;;;1.40;1.07;;;11.60;99.90;;;12.77;100.00;98788.28;4933843;29;20459;-76
2022/07/02 04:50:46;;;;;;;1.30;1.20;;;11.70;99.90;;;12.79;100.00;98786.28;4934906;29;20514;-76
2022/07/02 04:53:19;;;;;;;3.27;1.10;;;11.70;99.90;;;12.82;100.00;98790.34;4933322;29;20516;-76
2022/07/02 04:55:48;;;;;;;1.73;1.20;;;11.70;99.90;;;12.84;100.00;98790.97;4934242;29;20513;-76
2022/07/02 04:58:18;;;;;;;1.20;1.10;;;11.80;99.90;;;12.85;100.00;98790.78;4934538;29;20501;-76
2022/07/02 05:00:48;;;;;;;2.20;1.27;;;11.90;99.90;;;12.86;100.00;98791.59;4934481;29;20475;-76
2022/07/02 05:03:17;;;;;;;5.33;0.97;;;11.90;99.90;;;12.86;100.00;98784.53;4931862;29;20477;-76
2022/07/02 05:05:47;;;;;;;2.37;1.30;;;11.90;99.90;;;12.91;100.00;98790.03;4934003;29;20458;-76
2022/07/02 05:08:20;;;;;;;1.60;1.13;;;11.90;99.90;;;12.95;100.00;98785.25;4932539;29;20470;-76
2022/07/02 05:10:51;;;;;;;2.40;1.20;;;12.00;99.90;;;13.00;100.00;98786.34;4933934;29;20973;-76
2022/07/02 05:13:21;;;;;;;1.63;0.90;;;12.00;99.90;;;13.02;100.00;98786.13;4933100;29;20486;-76
2022/07/02 05:15:52;;;;;;;3.07;1.30;;;12.10;99.90;;;13.04;100.00;98778.91;4931991;29;20467;-76
2022/07/02 05:18:21;;;;;;;2.90;1.20;;;12.10;99.90;;;13.06;100.00;98777.72;4933964;29;20501;-76
2022/07/02 05:20:52;;;;;;;1.27;1.17;;;12.20;99.90;;;13.10;100.00;98778.19;4933950;29;20465;-76
2022/07/02 05:23:22;;;;;;;3.07;1.30;;;12.20;99.90;;;13.16;100.00;98780.06;4934271;29;20478;-76
2022/07/02 05:25:53;;;;;;;1.40;1.30;;;12.20;99.90;;;13.21;100.00;98780.34;4932444;29;20995;-76
2022/07/02 05:28:23;;;;;;;3.20;1.20;;;12.30;99.90;;;13.24;100.00;98785.22;4932203;29;20814;-76
2022/07/02 05:30:52;;;;;;;1.50;1.17;;;12.30;99.90;;;13.30;100.00;98783.66;4932907;29;20462;-76
2022/07/02 05:33:21;;;;;;;1.57;1.40;;;12.40;99.90;;;13.30;100.00;98779.22;4932932;29;20494;-76
2022/07/02 05:35:51;;;;;;;3.03;1.17;;;12.40;99.90;;;13.36;100.00;98778.47;4933274;29;21338;-76
2022/07/02 05:38:21;;;;;;;1.43;1.30;;;12.40;99.90;;;13.38;100.00;98771.22;4934413;29;20462;-76
2022/07/02 05:40:52;;;;;;;1.20;1.10;;;12.50;99.90;;;13.43;100.00;98779.34;4933678;29;20469;-76
2022/07/02 05:43:22;;;;;;;1.30;0.90;;;12.50;99.90;;;13.46;100.00;98786.88;4931998;29;20842;-76
2022/07/02 05:45:51;;;;;;;1.13;1.00;;;12.60;99.90;;;13.53;100.00;98790.38;4934005;29;20466;-76
2022/07/02 05:48:22;;;;;;;1.73;1.20;;;12.60;99.90;;;13.58;100.00;98793.25;4933465;29;20843;-76
2022/07/02 05:50:52;;;;;;;4.13;1.00;;;12.60;99.90;;;13.63;100.00;98784.81;4930878;29;20463;-76
2022/07/02 05:53:21;;;;;;;1.10;1.00;;;12.70;99.90;;;13.67;100.00;98791.34;4932144;29;20651;-76
2022/07/02 05:55:50;;;;;;;1.20;1.00;;;12.70;99.90;;;13.72;100.00;98788.94;4933295;29;20815;-76
2022/07/02 05:58:20;;;;;;;2.27;1.00;;;12.70;99.90;;;13.77;100.00;98783.94;4933406;29;20466;-76
2022/07/02 06:00:51;;;;;;;1.70;1.00;;;12.70;99.90;;;13.83;100.00;98796.31;4932284;29;20526;-77
2022/07/02 06:03:21;;;;;;;1.13;1.03;;;12.90;99.90;;;13.87;100.00;98791.50;4932324;29;20807;-76
2022/07/02 06:08:40;;;;;;;5.10;1.73;;;13.00;99.90;;;13.98;100.00;98788.34;4933236;29;20466;-75
2022/07/02 06:11:11;;;;;;;2.93;1.60;;;13.00;99.90;;;14.03;100.00;98788.59;4932598;29;20969;-76
2022/07/02 06:13:42;;;;;;;2.30;1.10;;;13.10;99.90;;;14.09;100.00;98779.97;4932190;29;20474;-77
2022/07/02 06:16:12;;;;;;;1.10;1.00;;;13.20;99.90;;;14.13;100.00;98786.44;4934083;29;20454;-76
2022/07/02 06:18:42;;;;;;;2.27;1.40;;;13.20;99.90;;;14.18;100.00;98786.69;4932050;29;20543;-77
2022/07/02 06:21:12;;;;;;;1.10;0.90;;;13.30;99.90;;;14.25;100.00;98789.38;4933826;29;20542;-77
2022/07/02 06:23:42;;;;;;;1.40;0.90;;;13.30;99.90;;;14.30;100.00;98782.50;4933775;29;20474;-77
2022/07/02 06:26:12;;;;;;;2.27;1.10;;;13.50;99.90;;;14.36;100.00;98775.72;4932495;29;20473;-77
2022/07/02 06:28:43;;;;;;;1.43;1.10;;;13.50;99.90;;;14.43;100.00;98774.75;4931521;29;20510;-77
2022/07/02 06:31:12;;;;;;;1.30;1.10;;;13.50;99.90;;;14.49;100.00;98776.59;4933184;29;20530;-77
2022/07/02 06:33:41;;;;;;;1.67;1.00;;;13.60;99.90;;;14.56;100.00;98769.56;4931568;29;20466;-77
2022/07/02 06:36:14;;;;;;;1.87;1.20;;;13.60;99.90;;;14.63;100.00;98766.13;4933331;29;20482;-77
2022/07/02 06:38:45;;;;;;;2.10;1.40;;;13.70;99.90;;;14.69;100.00;98767.97;4931260;29;20463;-77
2022/07/02 06:42:18;;;;;;;1.30;1.10;;;13.80;99.90;;;14.76;100.00;98767.00;4932408;29;20474;-77
2022/07/02 06:44:08;;;;;;;1.47;1.10;;;13.80;99.90;;;14.83;100.00;98759.97;4931248;29;20873;-77
2022/07/02 06:46:38;;;;;;;2.13;1.50;;;13.90;99.90;;;14.90;100.00;98757.34;4931550;29;20474;-77
2022/07/02 06:49:08;;;;;;;4.23;1.00;;;14.00;99.90;;;14.97;100.00;98756.38;4931195;29;20495;-77
2022/07/02 06:51:38;;;;;;;3.40;1.40;;;14.10;99.90;;;15.03;100.00;98762.66;4931997;29;20602;-77
2022/07/02 06:54:09;;;;;;;2.47;1.30;;;14.10;99.90;;;15.10;100.00;98763.50;4930243;29;20479;-77
2022/07/02 06:56:38;;;;;;;1.53;1.20;;;14.20;99.90;;;15.17;100.00;98760.91;4932863;29;20460;-77
2022/07/02 06:59:10;;;;;;;6.40;1.50;;;14.30;99.90;;;15.24;100.00;98759.88;4931397;29;20486;-77
2022/07/02 07:01:40;;;;;;;1.20;1.10;;;14.40;99.90;;;15.30;100.00;98761.75;4931725;29;20484;-77
2022/07/02 07:04:30;;;;;;;1.20;1.10;;;14.50;99.90;;;15.39;100.00;98759.72;4932898;29;20443;-77
2022/07/02 07:07:03;;;;;;;1.93;1.30;;;14.50;99.90;;;15.47;100.00;98765.63;4931572;29;20538;-77
2022/07/02 07:09:34;;;;;;;2.80;1.10;;;14.60;99.90;;;15.55;100.00;98756.72;4929546;29;20592;-76
2022/07/02 07:12:06;;;;;;;1.23;1.07;;;14.70;99.90;;;15.62;100.00;98765.47;4930881;29;20514;-77
2022/07/02 07:14:37;;;;;;;1.80;1.10;;;14.80;99.90;;;15.71;100.00;98758.19;4931599;29;20486;-77
2022/07/02 07:17:08;;;;;;;1.07;0.90;;;14.90;99.90;;;15.78;100.00;98762.44;4932222;29;20450;-77
2022/07/02 07:19:38;;;;;;;1.30;1.10;;;15.00;99.90;;;15.86;100.00;98753.53;4931847;29;20537;-77
2022/07/02 07:22:09;;;;;;;2.23;1.10;;;15.10;99.90;;;15.92;100.00;98750.06;4930255;29;20458;-77
2022/07/02 07:24:39;;;;;;;1.30;1.07;;;15.20;99.90;;;15.99;100.00;98749.06;4931771;29;20514;-77
2022/07/02 07:27:09;;;;;;;2.07;1.17;;;15.20;99.90;;;16.07;100.00;98743.56;4931588;29;20470;-77
2022/07/02 07:29:39;;;;;;;7.73;1.20;;;15.30;99.90;;;16.13;100.00;98744.56;4932541;29;20455;-77
2022/07/02 07:32:10;;;;;;;1.60;1.20;;;15.40;99.90;;;16.20;100.00;98740.09;4930745;29;20463;-77
2022/07/02 07:34:42;;;;;;;5.90;1.07;;;15.50;99.90;;;16.29;100.00;98740.69;4931381;29;21064;-77
2022/07/02 07:37:13;;;;;;;1.40;0.90;;;15.50;99.90;;;16.39;100.00;98741.06;4932720;29;20435;-77
2022/07/02 07:39:45;;;;;;;0.90;0.80;;;15.70;99.90;;;16.49;100.00;98739.63;4931677;29;20451;-77
2022/07/02 07:42:15;;;;;;;5.43;1.10;;;15.80;99.90;;;16.57;100.00;98739.44;4930862;29;20970;-77
2022/07/02 07:44:47;;;;;;;1.20;1.00;;;15.90;99.90;;;16.65;100.00;98737.56;4931643;29;20463;-77
2022/07/02 07:47:17;;;;;;;1.37;1.10;;;16.00;99.90;;;16.71;100.00;98739.38;4930643;29;20454;-77
2022/07/02 07:49:45;;;;;;;1.57;1.10;;;16.10;99.90;;;16.80;100.00;98740.78;4930905;29;20483;-77
2022/07/02 07:52:14;;;;;;;1.67;1.00;;;16.20;99.70;;;16.86;100.00;98734.66;4930527;29;20463;-77
2022/07/02 07:54:44;;;;;;;1.10;1.00;;;16.20;99.50;;;16.93;100.00;98730.16;4931125;29;20494;-77
2022/07/02 07:57:14;;;;;;;1.30;0.97;;;16.30;99.20;;;17.10;92.14;98736.56;4930895;29;20498;-77
2022/07/02 07:59:46;;;;;;;1.97;1.10;;;16.60;97.30;;;17.25;91.88;98731.78;4931016;29;20450;-77
2022/07/02 08:02:16;;;;;;;2.37;1.10;;;16.70;97.60;;;17.39;89.60;98735.97;4931973;29;20466;-77
2022/07/02 08:04:47;;;;;;;1.00;0.90;;;16.90;97.20;;;17.53;89.60;98731.41;4932138;29;20506;-77
2022/07/02 08:07:17;;;;;;;2.70;0.97;;;17.00;97.30;;;17.64;85.48;98724.66;4931694;29;20450;-77
2022/07/02 08:09:52;;;;;;;3.50;1.10;;;17.10;96.30;;;17.75;86.54;98721.31;4931051;29;20462;-77
2022/07/02 08:12:22;;;;;;;2.03;1.10;;;17.20;96.60;;;17.88;82.59;98719.34;4930934;29;20457;-77
2022/07/02 08:14:54;;;;;;;1.10;0.97;;;17.40;95.60;;;18.07;82.78;98712.28;4930366;29;20898;-77
2022/07/02 08:17:24;;;;;;;6.73;1.07;;;17.50;95.90;;;18.15;80.99;98714.66;4931144;29;20442;-77
2022/07/02 08:19:53;;;;;;;3.27;1.00;;;17.60;95.50;;;18.26;81.49;98710.44;4930978;29;20462;-77
2022/07/02 08:22:23;;;;;;;6.93;1.10;;;17.70;95.50;;;18.44;74.72;98713.09;4930261;29;20968;-77
2022/07/02 08:24:53;;;;;;;2.27;1.10;;;18.00;93.80;;;18.65;71.55;98714.53;4931988;29;20469;-77
2022/07/02 08:27:24;;;;;;;4.50;1.07;;;18.20;93.20;;;18.76;69.31;98711.13;4930126;29;20473;-77
2022/07/02 08:29:56;;;;;;;3.20;1.23;;;18.30;92.60;;;18.89;70.44;98709.13;4930143;29;20455;-77
2022/07/02 08:32:28;;;;;;;1.27;0.87;;;18.40;93.00;;;18.96;69.45;98707.19;4927924;29;20479;-77
2022/07/02 08:34:58;;;;;;;1.50;1.00;;;18.40;92.60;;;19.01;68.83;98709.19;4931746;29;20474;-77
2022/07/02 08:37:28;;;;;;;1.83;1.00;;;18.40;92.80;;;19.04;68.14;98698.94;4931112;29;20450;-78
2022/07/02 08:39:59;;;;;;;1.47;1.00;;;18.40;92.60;;;19.09;68.79;98700.91;4931398;29;20491;-77
2022/07/02 08:42:31;;;;;;;2.93;1.03;;;18.50;92.80;;;19.12;69.72;98699.66;4929841;29;20469;-77
2022/07/02 08:45:04;;;;;;;1.10;0.90;;;18.50;92.90;;;19.11;70.91;98704.16;4930346;29;20478;-77
2022/07/02 08:47:34;;;;;;;1.83;0.90;;;18.50;93.30;;;19.10;63.92;98707.81;4932108;29;20510;-77
2022/07/02 08:50:04;;;;;;;2.00;0.90;;;18.50;91.30;;;19.11;62.56;98698.84;4929710;29;20522;-77
2022/07/02 08:52:34;;;;;;;2.33;1.00;;;18.60;90.80;;;19.16;62.43;98688.34;4929851;29;20510;-77
2022/07/02 08:55:06;;;;;;;3.87;1.23;;;18.60;91.10;;;19.22;61.66;98695.44;4931360;29;20494;-77
2022/07/02 08:57:52;;;;;;;1.43;0.83;;;18.60;90.80;;;19.31;60.78;98687.94;4930367;29;20529;-77
2022/07/02 09:00:23;;;;;;;1.90;0.90;;;18.70;90.50;;;19.36;61.38;98688.91;4930518;29;20471;-77
2022/07/02 09:03:00;;;;;;;1.07;0.80;;;18.70;90.90;;;19.40;60.55;98684.72;4929254;29;20458;-77
2022/07/02 09:05:32;;;;;;;1.70;0.97;;;18.70;90.40;;;19.45;58.34;98674.28;4930249;29;20553;-77
2022/07/02 09:08:02;;;;;;;1.00;0.80;;;18.80;90.00;;;19.51;58.81;98668.06;4930947;29;20463;-77
2022/07/02 09:10:32;;;;;;;1.60;0.80;;;18.90;90.10;;;19.59;57.94;98670.38;4930393;29;20545;-77
2022/07/02 09:13:03;;;;;;;7.43;1.00;;;19.00;89.50;;;19.65;56.55;98660.69;4929879;29;20448;-77
2022/07/02 09:15:36;;;;;;;1.23;1.00;;;19.00;88.70;;;19.73;57.37;98664.84;4930809;29;20496;-76
2022/07/02 09:18:07;;;;;;;5.77;1.00;;;19.10;89.70;;;19.75;58.14;98665.44;4931389;29;20454;-77
2022/07/02 09:20:36;;;;;;;1.67;0.80;;;19.10;90.10;;;19.77;58.42;98655.41;4930868;29;20447;-77
2022/07/02 09:23:10;;;;;;;4.50;0.90;;;19.20;90.10;;;19.78;58.60;98663.13;4930481;29;20443;-77
2022/07/02 09:25:42;;;;;;;1.50;0.90;;;19.10;90.10;;;19.82;58.21;98650.22;4932815;29;20453;-77
2022/07/02 09:28:16;;;;;;;1.27;0.93;;;19.20;90.10;;;19.84;58.60;98646.28;4933904;29;20975;-77
2022/07/02 09:30:47;;;;;;;1.90;1.07;;;19.20;90.30;;;19.87;59.39;98650.31;4933235;29;20468;-77
2022/07/02 09:33:30;;;;;;;1.10;0.87;;;19.30;90.50;;;19.90;57.43;98641.88;4931913;29;20544;-77
2022/07/02 09:36:08;;;;;;;1.40;1.00;;;19.30;89.50;;;19.93;57.64;98647.53;4934826;29;20581;-77
2022/07/02 09:38:43;;;;;;;1.47;0.80;;;19.30;89.70;;;20.06;56.78;98646.50;4932936;29;20482;-77
2022/07/02 09:41:18;;;;;;;1.30;1.00;;;19.60;89.00;;;20.12;56.04;98645.56;4932627;29;20454;-77
2022/07/02 09:43:53;;;;;;;2.20;0.93;;;19.50;88.00;;;20.17;55.73;98643.00;4933287;29;20890;-77
2022/07/02 09:46:24;;;;;;;3.20;0.80;;;19.60;88.40;;;20.23;54.51;98636.78;4932238;29;20462;-77
2022/07/02 09:48:54;;;;;;;1.77;1.03;;;19.60;86.70;;;20.25;54.00;98640.00;4933545;29;20855;-77
2022/07/02 09:51:23;;;;;;;3.90;1.60;;;19.60;86.80;;;20.28;53.96;98630.78;4933044;29;20474;-77
2022/07/02 09:53:56;;;;;;;1.23;1.00;;;19.70;87.20;;;20.43;54.03;98634.56;4932958;29;20962;-77
2022/07/02 09:56:26;;;;;;;5.83;1.07;;;19.90;87.10;;;20.52;53.86;98629.66;4932227;29;20493;-77
2022/07/02 09:58:56;;;;;;;1.97;1.40;;;19.90;86.70;;;20.57;54.17;98641.22;4931879;29;20467;-77
2022/07/02 10:01:28;;;;;;;2.03;0.90;;;19.90;87.20;;;20.62;52.66;98626.41;4931814;29;20478;-77
2022/07/02 10:03:58;;;;;;;1.00;0.80;;;19.90;85.00;;;20.63;51.69;98633.31;4931443;29;20466;-77
2022/07/02 10:06:27;;;;;;;1.93;1.30;;;19.90;84.20;;;20.65;51.66;98636.56;4933090;29;20473;-77
2022/07/02 10:08:58;;;;;;;1.00;0.80;;;20.00;85.40;;;20.70;53.00;98634.00;4933811;29;20942;-77
2022/07/02 10:11:29;;;;;;;1.00;0.80;;;20.10;86.60;;;20.73;53.63;98628.19;4932824;29;20846;-77
2022/07/02 10:14:00;;;;;;;2.30;1.00;;;20.00;87.20;;;20.76;54.04;98625.06;4931197;29;20466;-77
2022/07/02 10:16:33;;;;;;;1.57;0.93;;;20.10;87.20;;;20.79;54.40;98627.25;4932081;28;20498;-77
2022/07/02 10:19:04;;;;;;;7.80;1.07;;;20.20;87.70;;;20.80;53.58;98618.22;4932578;29;20817;-78
2022/07/02 10:21:33;;;;;;;1.50;0.90;;;20.10;85.90;;;20.85;53.06;98615.66;4932227;29;20516;-77
2022/07/02 10:24:04;;;;;;;5.93;1.00;;;20.30;86.30;;;20.94;54.20;98608.91;4933021;29;20455;-77
2022/07/02 10:26:35;;;;;;;3.20;1.00;;;20.30;88.50;;;20.96;54.80;98606.84;4932316;29;20462;-77
2022/07/02 10:29:04;;;;;;;3.40;1.00;;;20.40;88.40;;;21.01;53.96;98609.56;4931021;29;20495;-77
2022/07/02 10:31:42;;;;;;;1.47;1.10;;;20.40;87.50;;;21.03;53.70;98608.25;4933133;29;20474;-77
2022/07/02 10:34:35;;;;;;;7.43;1.50;;;20.40;87.30;;;21.11;52.92;98609.75;4930458;29;20462;-77